sensor_id;sensor_type;location;lat;lon;timestamp;P1;durP1;ratioP1;P2;durP2;ratioP2
14048;SDS011;7099;53.922;10.728;2022-10-29T00:21:52;17.33;;;4.90;;
14048;SDS011;7099;53.922;10.728;2022-10-29T00:26:18;15.90;;;5.30;;
14048;SDS011;7099;53.922;10.728;2022-10-29T00:48:47;16.00;;;4.13;;
14048;SDS011;7099;53.922;10.728;2022-10-29T01:50:01;17.07;;;4.90;;
14048;SDS011;7099;53.922;10.728;2022-10-29T03:19:03;24.27;;;4.80;;
14048;SDS011;7099;53.922;10.728;2022-10-29T03:23:28;19.80;;;4.07;;
14048;SDS011;7099;53.922;10.728;2022-10-29T03:27:53;17.67;;;4.70;;
14048;SDS011;7099;53.922;10.728;2022-10-29T03:32:19;30.27;;;6.17;;
14048;SDS011;7099;53.922;10.728;2022-10-29T03:36:44;12.63;;;4.80;;
14048;SDS011;7099;53.922;10.728;2022-10-29T03:41:10;16.77;;;4.20;;
14048;SDS011;7099;53.922;10.728;2022-10-29T03:45:35;23.07;;;4.13;;
14048;SDS011;7099;53.922;10.728;2022-10-29T03:54:25;22.43;;;4.40;;
14048;SDS011;7099;53.922;10.728;2022-10-29T03:58:51;16.07;;;3.90;;
14048;SDS011;7099;53.922;10.728;2022-10-29T04:03:16;23.87;;;3.73;;
14048;SDS011;7099;53.922;10.728;2022-10-29T04:07:41;17.33;;;4.00;;
14048;SDS011;7099;53.922;10.728;2022-10-29T04:12:07;11.03;;;3.90;;
14048;SDS011;7099;53.922;10.728;2022-10-29T04:16:32;10.73;;;3.50;;
14048;SDS011;7099;53.922;10.728;2022-10-29T04:20:58;24.93;;;4.00;;
14048;SDS011;7099;53.922;10.728;2022-10-29T04:25:55;11.07;;;3.93;;
14048;SDS011;7099;53.922;10.728;2022-10-29T04:30:41;21.00;;;4.20;;
14048;SDS011;7099;53.922;10.728;2022-10-29T04:35:06;15.70;;;4.00;;
14048;SDS011;7099;53.922;10.728;2022-10-29T04:39:31;14.37;;;3.93;;
14048;SDS011;7099;53.922;10.728;2022-10-29T04:43:57;15.33;;;4.17;;
14048;SDS011;7099;53.922;10.728;2022-10-29T04:48:23;14.30;;;4.47;;
14048;SDS011;7099;53.922;10.728;2022-10-29T04:52:51;15.97;;;4.33;;
14048;SDS011;7099;53.922;10.728;2022-10-29T04:57:17;21.50;;;4.47;;
14048;SDS011;7099;53.922;10.728;2022-10-29T05:01:42;14.47;;;4.00;;
14048;SDS011;7099;53.922;10.728;2022-10-29T05:06:07;12.70;;;3.37;;
14048;SDS011;7099;53.922;10.728;2022-10-29T05:10:33;15.60;;;3.80;;
14048;SDS011;7099;53.922;10.728;2022-10-29T05:15:01;21.37;;;4.20;;
14048;SDS011;7099;53.922;10.728;2022-10-29T05:19:27;25.03;;;5.40;;
14048;SDS011;7099;53.922;10.728;2022-10-29T05:23:52;12.97;;;4.07;;
14048;SDS011;7099;53.922;10.728;2022-10-29T05:28:18;16.20;;;3.83;;
14048;SDS011;7099;53.922;10.728;2022-10-29T05:32:45;16.67;;;4.37;;
14048;SDS011;7099;53.922;10.728;2022-10-29T05:37:10;27.93;;;5.07;;
14048;SDS011;7099;53.922;10.728;2022-10-29T05:41:35;18.67;;;4.83;;
14048;SDS011;7099;53.922;10.728;2022-10-29T05:46:01;18.73;;;5.03;;
14048;SDS011;7099;53.922;10.728;2022-10-29T05:50:30;16.95;;;4.50;;
14048;SDS011;7099;53.922;10.728;2022-10-29T05:54:57;14.20;;;4.40;;
14048;SDS011;7099;53.922;10.728;2022-10-29T05:59:22;16.43;;;4.00;;
14048;SDS011;7099;53.922;10.728;2022-10-29T06:03:47;12.77;;;4.03;;
14048;SDS011;7099;53.922;10.728;2022-10-29T06:08:13;18.53;;;4.23;;
14048;SDS011;7099;53.922;10.728;2022-10-29T06:12:38;20.03;;;4.60;;
14048;SDS011;7099;53.922;10.728;2022-10-29T06:25:54;12.80;;;4.57;;
14048;SDS011;7099;53.922;10.728;2022-10-29T06:30:22;12.07;;;4.67;;
14048;SDS011;7099;53.922;10.728;2022-10-29T06:34:47;10.33;;;3.80;;
14048;SDS011;7099;53.922;10.728;2022-10-29T06:39:13;8.83;;;3.60;;
14048;SDS011;7099;53.922;10.728;2022-10-29T06:43:38;16.73;;;3.70;;
14048;SDS011;7099;53.922;10.728;2022-10-29T06:48:03;12.43;;;4.40;;
14048;SDS011;7099;53.922;10.728;2022-10-29T06:52:29;13.60;;;4.30;;
14048;SDS011;7099;53.922;10.728;2022-10-29T06:56:54;15.37;;;3.90;;
14048;SDS011;7099;53.922;10.728;2022-10-29T07:01:20;17.13;;;4.63;;
14048;SDS011;7099;53.922;10.728;2022-10-29T07:05:53;16.50;;;4.00;;
14048;SDS011;7099;53.922;10.728;2022-10-29T07:10:20;21.23;;;6.43;;
14048;SDS011;7099;53.922;10.728;2022-10-29T07:14:46;36.27;;;8.40;;
14048;SDS011;7099;53.922;10.728;2022-10-29T07:19:11;22.83;;;7.80;;
14048;SDS011;7099;53.922;10.728;2022-10-29T08:25:42;40.17;;;9.60;;
14048;SDS011;7099;53.922;10.728;2022-10-29T08:30:10;32.03;;;10.67;;
14048;SDS011;7099;53.922;10.728;2022-10-29T08:34:37;32.40;;;10.40;;
14048;SDS011;7099;53.922;10.728;2022-10-29T08:39:02;28.90;;;10.40;;
14048;SDS011;7099;53.922;10.728;2022-10-29T08:52:51;30.97;;;9.10;;
14048;SDS011;7099;53.922;10.728;2022-10-29T08:57:41;28.53;;;9.63;;
14048;SDS011;7099;53.922;10.728;2022-10-29T09:02:19;27.33;;;9.83;;
14048;SDS011;7099;53.922;10.728;2022-10-29T09:21:07;33.40;;;9.60;;
14048;SDS011;7099;53.922;10.728;2022-10-29T09:26:01;31.20;;;9.70;;
14048;SDS011;7099;53.922;10.728;2022-10-29T09:30:29;21.63;;;8.97;;
14048;SDS011;7099;53.922;10.728;2022-10-29T09:35:05;23.60;;;10.30;;
14048;SDS011;7099;53.922;10.728;2022-10-29T09:39:38;27.67;;;9.53;;
14048;SDS011;7099;53.922;10.728;2022-10-29T09:44:17;28.07;;;10.60;;
14048;SDS011;7099;53.922;10.728;2022-10-29T09:53:38;31.40;;;11.20;;
14048;SDS011;7099;53.922;10.728;2022-10-29T09:58:03;35.97;;;10.00;;
14048;SDS011;7099;53.922;10.728;2022-10-29T10:02:37;29.73;;;10.47;;
14048;SDS011;7099;53.922;10.728;2022-10-29T10:07:10;27.97;;;10.23;;
14048;SDS011;7099;53.922;10.728;2022-10-29T10:11:41;23.87;;;10.30;;
14048;SDS011;7099;53.922;10.728;2022-10-29T10:16:14;30.87;;;9.80;;
14048;SDS011;7099;53.922;10.728;2022-10-29T10:20:58;25.53;;;10.00;;
14048;SDS011;7099;53.922;10.728;2022-10-29T10:25:57;20.10;;;10.00;;
14048;SDS011;7099;53.922;10.728;2022-10-29T10:30:29;23.53;;;8.20;;
14048;SDS011;7099;53.922;10.728;2022-10-29T10:34:54;30.57;;;8.83;;
14048;SDS011;7099;53.922;10.728;2022-10-29T10:44:02;19.40;;;6.50;;
14048;SDS011;7099;53.922;10.728;2022-10-29T10:48:28;18.23;;;6.17;;
14048;SDS011;7099;53.922;10.728;2022-10-29T10:52:58;12.27;;;6.30;;
14048;SDS011;7099;53.922;10.728;2022-10-29T10:57:41;18.20;;;5.83;;
14048;SDS011;7099;53.922;10.728;2022-10-29T11:07:13;9.97;;;6.00;;
14048;SDS011;7099;53.922;10.728;2022-10-29T11:16:28;17.47;;;5.20;;
14048;SDS011;7099;53.922;10.728;2022-10-29T11:21:32;13.53;;;6.30;;
14048;SDS011;7099;53.922;10.728;2022-10-29T11:26:33;13.00;;;6.20;;
14048;SDS011;7099;53.922;10.728;2022-10-29T11:31:10;13.33;;;5.70;;
14048;SDS011;7099;53.922;10.728;2022-10-29T11:54:42;13.93;;;6.30;;
14048;SDS011;7099;53.922;10.728;2022-10-29T12:04:25;16.47;;;7.30;;
14048;SDS011;7099;53.922;10.728;2022-10-29T12:10:20;11.60;;;6.60;;
14048;SDS011;7099;53.922;10.728;2022-10-29T12:14:55;14.70;;;7.50;;
14048;SDS011;7099;53.922;10.728;2022-10-29T12:29:25;19.60;;;10.53;;
14048;SDS011;7099;53.922;10.728;2022-10-29T12:34:13;18.03;;;11.17;;
14048;SDS011;7099;53.922;10.728;2022-10-29T12:39:26;20.13;;;10.13;;
14048;SDS011;7099;53.922;10.728;2022-10-29T12:44:02;19.67;;;8.77;;
14048;SDS011;7099;53.922;10.728;2022-10-29T12:58:49;15.70;;;7.70;;
14048;SDS011;7099;53.922;10.728;2022-10-29T13:09:15;16.40;;;6.60;;
14048;SDS011;7099;53.922;10.728;2022-10-29T13:13:50;14.10;;;7.03;;
14048;SDS011;7099;53.922;10.728;2022-10-29T13:18:41;18.63;;;6.93;;
14048;SDS011;7099;53.922;10.728;2022-10-29T13:27:55;13.47;;;6.00;;
14048;SDS011;7099;53.922;10.728;2022-10-29T13:32:36;10.07;;;5.60;;
14048;SDS011;7099;53.922;10.728;2022-10-29T13:42:09;12.23;;;4.97;;
14048;SDS011;7099;53.922;10.728;2022-10-29T13:51:37;11.33;;;5.00;;
14048;SDS011;7099;53.922;10.728;2022-10-29T13:56:09;8.07;;;4.30;;
14048;SDS011;7099;53.922;10.728;2022-10-29T14:00:43;11.50;;;4.93;;
14048;SDS011;7099;53.922;10.728;2022-10-29T14:09:51;16.80;;;5.83;;
14048;SDS011;7099;53.922;10.728;2022-10-29T14:19:21;8.23;;;5.13;;
14048;SDS011;7099;53.922;10.728;2022-10-29T14:32:54;11.30;;;6.27;;
14048;SDS011;7099;53.922;10.728;2022-10-29T14:37:30;16.93;;;7.63;;
14048;SDS011;7099;53.922;10.728;2022-10-29T14:42:13;20.60;;;7.63;;
14048;SDS011;7099;53.922;10.728;2022-10-29T14:46:51;12.47;;;6.27;;
14048;SDS011;7099;53.922;10.728;2022-10-29T14:51:21;15.87;;;7.70;;
14048;SDS011;7099;53.922;10.728;2022-10-29T14:55:48;12.20;;;6.97;;
14048;SDS011;7099;53.922;10.728;2022-10-29T15:00:21;16.50;;;6.70;;
14048;SDS011;7099;53.922;10.728;2022-10-29T15:04:57;15.47;;;7.87;;
14048;SDS011;7099;53.922;10.728;2022-10-29T15:09:30;11.90;;;7.47;;
14048;SDS011;7099;53.922;10.728;2022-10-29T15:13:57;23.70;;;7.70;;
14048;SDS011;7099;53.922;10.728;2022-10-29T15:18:22;21.70;;;8.00;;
14048;SDS011;7099;53.922;10.728;2022-10-29T15:22:53;17.37;;;9.23;;
14048;SDS011;7099;53.922;10.728;2022-10-29T15:27:21;16.90;;;9.20;;
14048;SDS011;7099;53.922;10.728;2022-10-29T15:31:47;23.37;;;10.03;;
14048;SDS011;7099;53.922;10.728;2022-10-29T15:36:17;20.57;;;9.20;;
14048;SDS011;7099;53.922;10.728;2022-10-29T15:40:42;20.87;;;9.40;;
14048;SDS011;7099;53.922;10.728;2022-10-29T15:45:54;19.87;;;8.90;;
14048;SDS011;7099;53.922;10.728;2022-10-29T15:50:26;23.37;;;8.80;;
14048;SDS011;7099;53.922;10.728;2022-10-29T15:55:22;15.40;;;7.13;;
14048;SDS011;7099;53.922;10.728;2022-10-29T15:59:54;17.77;;;9.33;;
14048;SDS011;7099;53.922;10.728;2022-10-29T16:04:21;20.13;;;9.30;;
14048;SDS011;7099;53.922;10.728;2022-10-29T16:13:14;22.37;;;10.87;;
14048;SDS011;7099;53.922;10.728;2022-10-29T16:17:41;26.17;;;10.37;;
14048;SDS011;7099;53.922;10.728;2022-10-29T16:22:19;22.57;;;10.07;;
14048;SDS011;7099;53.922;10.728;2022-10-29T16:26:52;24.53;;;8.80;;
14048;SDS011;7099;53.922;10.728;2022-10-29T16:31:18;17.13;;;10.00;;
14048;SDS011;7099;53.922;10.728;2022-10-29T16:35:46;19.37;;;10.47;;
14048;SDS011;7099;53.922;10.728;2022-10-29T16:40:11;21.13;;;9.53;;
14048;SDS011;7099;53.922;10.728;2022-10-29T16:44:37;16.60;;;10.30;;
14048;SDS011;7099;53.922;10.728;2022-10-29T16:49:04;26.47;;;11.73;;
14048;SDS011;7099;53.922;10.728;2022-10-29T16:53:29;21.77;;;12.43;;
14048;SDS011;7099;53.922;10.728;2022-10-29T16:57:55;22.90;;;12.37;;
14048;SDS011;7099;53.922;10.728;2022-10-29T17:02:21;30.73;;;13.80;;
14048;SDS011;7099;53.922;10.728;2022-10-29T17:06:47;24.90;;;16.00;;
14048;SDS011;7099;53.922;10.728;2022-10-29T17:11:12;29.03;;;18.87;;
14048;SDS011;7099;53.922;10.728;2022-10-29T17:15:38;31.90;;;18.30;;
14048;SDS011;7099;53.922;10.728;2022-10-29T17:20:04;28.17;;;16.00;;
14048;SDS011;7099;53.922;10.728;2022-10-29T17:24:31;20.27;;;11.30;;
14048;SDS011;7099;53.922;10.728;2022-10-29T17:28:56;26.87;;;13.10;;
14048;SDS011;7099;53.922;10.728;2022-10-29T17:33:21;30.63;;;12.93;;
14048;SDS011;7099;53.922;10.728;2022-10-29T17:37:46;23.37;;;13.23;;
14048;SDS011;7099;53.922;10.728;2022-10-29T17:42:12;21.53;;;11.67;;
14048;SDS011;7099;53.922;10.728;2022-10-29T17:46:37;19.43;;;11.63;;
14048;SDS011;7099;53.922;10.728;2022-10-29T17:51:03;26.00;;;13.23;;
14048;SDS011;7099;53.922;10.728;2022-10-29T17:55:28;27.97;;;13.80;;
14048;SDS011;7099;53.922;10.728;2022-10-29T17:59:53;26.70;;;15.40;;
14048;SDS011;7099;53.922;10.728;2022-10-29T18:04:19;40.47;;;23.93;;
14048;SDS011;7099;53.922;10.728;2022-10-29T18:08:44;33.20;;;17.63;;
14048;SDS011;7099;53.922;10.728;2022-10-29T18:13:09;26.43;;;15.47;;
14048;SDS011;7099;53.922;10.728;2022-10-29T18:17:34;28.20;;;14.83;;
14048;SDS011;7099;53.922;10.728;2022-10-29T18:22:00;23.40;;;14.20;;
14048;SDS011;7099;53.922;10.728;2022-10-29T18:26:29;24.27;;;14.80;;
14048;SDS011;7099;53.922;10.728;2022-10-29T18:30:56;24.00;;;13.03;;
14048;SDS011;7099;53.922;10.728;2022-10-29T18:35:21;22.17;;;13.87;;
14048;SDS011;7099;53.922;10.728;2022-10-29T18:39:47;33.80;;;13.20;;
14048;SDS011;7099;53.922;10.728;2022-10-29T18:44:12;24.13;;;12.87;;
14048;SDS011;7099;53.922;10.728;2022-10-29T18:48:38;20.13;;;13.23;;
14048;SDS011;7099;53.922;10.728;2022-10-29T18:53:05;22.50;;;12.73;;
14048;SDS011;7099;53.922;10.728;2022-10-29T18:57:30;24.80;;;12.33;;
14048;SDS011;7099;53.922;10.728;2022-10-29T19:01:56;20.67;;;12.40;;
14048;SDS011;7099;53.922;10.728;2022-10-29T19:06:22;26.63;;;13.17;;
14048;SDS011;7099;53.922;10.728;2022-10-29T19:10:50;22.23;;;12.77;;
14048;SDS011;7099;53.922;10.728;2022-10-29T19:15:16;18.10;;;12.43;;
14048;SDS011;7099;53.922;10.728;2022-10-29T19:19:41;22.73;;;12.33;;
14048;SDS011;7099;53.922;10.728;2022-10-29T19:24:07;24.03;;;12.30;;
14048;SDS011;7099;53.922;10.728;2022-10-29T19:28:36;20.60;;;12.40;;
14048;SDS011;7099;53.922;10.728;2022-10-29T19:33:03;21.57;;;12.57;;
14048;SDS011;7099;53.922;10.728;2022-10-29T19:37:31;25.80;;;13.50;;
14048;SDS011;7099;53.922;10.728;2022-10-29T19:41:57;25.70;;;14.57;;
14048;SDS011;7099;53.922;10.728;2022-10-29T19:46:22;27.83;;;14.63;;
14048;SDS011;7099;53.922;10.728;2022-10-29T19:50:51;26.77;;;13.83;;
14048;SDS011;7099;53.922;10.728;2022-10-29T19:55:19;26.60;;;12.20;;
14048;SDS011;7099;53.922;10.728;2022-10-29T19:59:44;21.87;;;13.23;;
14048;SDS011;7099;53.922;10.728;2022-10-29T20:04:10;34.17;;;13.73;;
14048;SDS011;7099;53.922;10.728;2022-10-29T20:08:35;25.60;;;13.83;;
14048;SDS011;7099;53.922;10.728;2022-10-29T20:13:01;23.50;;;13.23;;
14048;SDS011;7099;53.922;10.728;2022-10-29T20:17:29;25.57;;;14.00;;
14048;SDS011;7099;53.922;10.728;2022-10-29T20:21:54;32.83;;;15.87;;
14048;SDS011;7099;53.922;10.728;2022-10-29T20:26:20;23.20;;;14.50;;
14048;SDS011;7099;53.922;10.728;2022-10-29T20:30:46;20.33;;;13.10;;
14048;SDS011;7099;53.922;10.728;2022-10-29T20:35:11;21.90;;;13.23;;
14048;SDS011;7099;53.922;10.728;2022-10-29T20:39:36;28.47;;;11.83;;
14048;SDS011;7099;53.922;10.728;2022-10-29T20:44:02;26.30;;;10.87;;
14048;SDS011;7099;53.922;10.728;2022-10-29T20:48:27;17.70;;;11.33;;
14048;SDS011;7099;53.922;10.728;2022-10-29T20:52:53;21.23;;;12.80;;
14048;SDS011;7099;53.922;10.728;2022-10-29T20:57:19;29.30;;;14.97;;
14048;SDS011;7099;53.922;10.728;2022-10-29T21:01:44;30.50;;;16.67;;
14048;SDS011;7099;53.922;10.728;2022-10-29T21:06:10;37.27;;;16.77;;
14048;SDS011;7099;53.922;10.728;2022-10-29T21:10:40;28.63;;;16.47;;
14048;SDS011;7099;53.922;10.728;2022-10-29T21:15:06;25.40;;;15.73;;
14048;SDS011;7099;53.922;10.728;2022-10-29T21:19:32;33.53;;;15.20;;
14048;SDS011;7099;53.922;10.728;2022-10-29T21:23:57;29.60;;;15.93;;
14048;SDS011;7099;53.922;10.728;2022-10-29T21:28:22;31.90;;;15.73;;
14048;SDS011;7099;53.922;10.728;2022-10-29T21:32:48;25.93;;;15.20;;
14048;SDS011;7099;53.922;10.728;2022-10-29T21:37:13;25.50;;;13.73;;
14048;SDS011;7099;53.922;10.728;2022-10-29T21:41:38;25.30;;;14.23;;
14048;SDS011;7099;53.922;10.728;2022-10-29T21:46:04;25.23;;;13.83;;
14048;SDS011;7099;53.922;10.728;2022-10-29T21:50:29;27.60;;;13.83;;
14048;SDS011;7099;53.922;10.728;2022-10-29T21:54:55;23.17;;;14.47;;
14048;SDS011;7099;53.922;10.728;2022-10-29T21:59:20;26.13;;;15.27;;
14048;SDS011;7099;53.922;10.728;2022-10-29T22:03:46;37.93;;;15.20;;
14048;SDS011;7099;53.922;10.728;2022-10-29T22:08:11;25.10;;;15.00;;
14048;SDS011;7099;53.922;10.728;2022-10-29T22:12:37;30.93;;;15.60;;
14048;SDS011;7099;53.922;10.728;2022-10-29T22:17:02;25.43;;;15.80;;
14048;SDS011;7099;53.922;10.728;2022-10-29T22:21:27;34.37;;;15.60;;
14048;SDS011;7099;53.922;10.728;2022-10-29T22:25:52;33.40;;;16.00;;
14048;SDS011;7099;53.922;10.728;2022-10-29T22:30:18;32.20;;;16.60;;
14048;SDS011;7099;53.922;10.728;2022-10-29T22:34:43;33.63;;;16.40;;
14048;SDS011;7099;53.922;10.728;2022-10-29T22:39:08;28.10;;;15.30;;
14048;SDS011;7099;53.922;10.728;2022-10-29T22:43:33;25.33;;;14.90;;
14048;SDS011;7099;53.922;10.728;2022-10-29T22:47:59;30.30;;;15.30;;
14048;SDS011;7099;53.922;10.728;2022-10-29T22:52:24;28.67;;;16.33;;
14048;SDS011;7099;53.922;10.728;2022-10-29T22:56:49;27.53;;;16.00;;
14048;SDS011;7099;53.922;10.728;2022-10-29T23:01:16;29.43;;;16.60;;
14048;SDS011;7099;53.922;10.728;2022-10-29T23:05:56;28.03;;;17.13;;
14048;SDS011;7099;53.922;10.728;2022-10-29T23:10:23;32.00;;;16.00;;
14048;SDS011;7099;53.922;10.728;2022-10-29T23:14:48;32.50;;;16.23;;
14048;SDS011;7099;53.922;10.728;2022-10-29T23:19:13;26.67;;;16.47;;
14048;SDS011;7099;53.922;10.728;2022-10-29T23:23:39;40.80;;;19.27;;
14048;SDS011;7099;53.922;10.728;2022-10-29T23:28:04;33.23;;;17.53;;
14048;SDS011;7099;53.922;10.728;2022-10-29T23:32:29;34.13;;;15.87;;
14048;SDS011;7099;53.922;10.728;2022-10-29T23:36:54;36.40;;;17.47;;
14048;SDS011;7099;53.922;10.728;2022-10-29T23:41:21;25.00;;;15.70;;
14048;SDS011;7099;53.922;10.728;2022-10-29T23:45:46;30.93;;;16.20;;
14048;SDS011;7099;53.922;10.728;2022-10-29T23:50:11;27.37;;;14.90;;
14048;SDS011;7099;53.922;10.728;2022-10-29T23:54:36;21.43;;;14.83;;
14048;SDS011;7099;53.922;10.728;2022-10-29T23:59:02;35.87;;;16.57;;
